createdAt,value
2022-08-22T00:00:17.620Z,78.16
2022-08-22T00:01:31.318Z,77.62
2022-08-22T00:02:38.840Z,77.66
2022-08-22T00:02:45.269Z,67.93
2022-08-22T00:02:59.131Z,77.61
2022-08-22T00:03:06.628Z,77.52
2022-08-22T00:03:52.332Z,77.22
2022-08-22T00:05:04.683Z,77.20
2022-08-22T00:06:26.160Z,77.43
2022-08-22T00:08:04.651Z,77.39
2022-08-22T00:09:20.085Z,77.56
2022-08-22T00:10:33.441Z,77.79
2022-08-22T00:11:54.236Z,78.40
2022-08-22T00:13:12.158Z,78.22
2022-08-22T00:14:24.566Z,77.79
2022-08-22T00:15:42.522Z,77.69
2022-08-22T00:16:38.504Z,77.43
2022-08-22T00:17:56.419Z,77.10
2022-08-22T00:19:19.774Z,77.09
2022-08-22T00:20:35.037Z,77.08
2022-08-22T00:21:43.854Z,77.19
2022-08-22T00:22:52.335Z,77.39
2022-08-22T00:24:07.001Z,77.58
2022-08-22T00:25:46.559Z,77.42
2022-08-22T00:27:00.765Z,77.33
2022-08-22T00:28:28.441Z,77.21
2022-08-22T00:29:43.562Z,76.98
2022-08-22T00:30:53.688Z,76.95
2022-08-22T00:32:11.708Z,76.85
2022-08-22T00:33:29.638Z,76.48
2022-08-22T00:34:41.388Z,76.39
2022-08-22T00:35:47.041Z,76.43
2022-08-22T00:36:55.959Z,76.41
2022-08-22T00:38:17.405Z,76.50
2022-08-22T00:39:42.877Z,76.66
2022-08-22T00:41:07.021Z,76.84
2022-08-22T00:42:29.544Z,76.62
2022-08-22T00:43:35.713Z,76.57
2022-08-22T00:44:58.140Z,76.39
2022-08-22T00:46:21.898Z,76.26
2022-08-22T00:47:30.723Z,76.62
2022-08-22T00:48:57.959Z,76.91
2022-08-22T00:50:37.243Z,76.82
2022-08-22T00:51:51.789Z,77.45
2022-08-22T00:53:20.514Z,77.51
2022-08-22T00:54:35.373Z,77.44
2022-08-22T00:55:45.167Z,77.29
2022-08-22T00:57:17.090Z,77.21
2022-08-22T00:58:31.917Z,77.18
2022-08-22T00:59:48.320Z,76.81
2022-08-22T01:00:57.442Z,76.80
2022-08-22T01:02:29.483Z,76.76
2022-08-22T01:03:38.022Z,76.74
2022-08-22T01:04:44.288Z,76.44
2022-08-22T01:06:22.067Z,76.29
2022-08-22T01:07:55.376Z,76.09
2022-08-22T01:09:30.060Z,76.14
2022-08-22T01:10:53.614Z,76.12
2022-08-22T01:12:15.826Z,76.39
2022-08-22T01:13:39.090Z,76.32
2022-08-22T01:14:50.681Z,76.30
2022-08-22T01:15:57.536Z,76.37
2022-08-22T01:17:03.685Z,76.32
2022-08-22T01:18:44.250Z,76.16
2022-08-22T01:20:11.751Z,76.00
2022-08-22T01:21:40.385Z,75.58
2022-08-22T01:23:02.812Z,75.18
2022-08-22T01:24:24.224Z,74.84
2022-08-22T01:25:49.937Z,75.34
2022-08-22T01:27:02.930Z,75.58
2022-08-22T01:28:08.804Z,75.44
2022-08-22T01:29:36.430Z,75.28
2022-08-22T01:31:01.241Z,75.55
2022-08-22T01:32:33.314Z,75.28
2022-08-22T01:34:05.189Z,75.29
2022-08-22T01:35:25.109Z,75.06
2022-08-22T01:38:01.192Z,75.01
2022-08-22T01:39:15.714Z,74.86
2022-08-22T01:40:37.533Z,74.80
2022-08-22T01:42:19.513Z,74.51
2022-08-22T01:43:58.575Z,74.23
2022-08-22T01:45:06.127Z,74.61
2022-08-22T01:46:27.626Z,74.73
2022-08-22T01:47:48.596Z,74.72
2022-08-22T01:48:57.327Z,74.83
2022-08-22T01:51:29.697Z,74.84
2022-08-22T01:52:47.554Z,74.97
2022-08-22T01:54:02.550Z,74.75
2022-08-22T01:55:24.930Z,74.83
2022-08-22T01:56:37.011Z,74.65
2022-08-22T01:57:55.751Z,74.53
2022-08-22T01:59:01.938Z,74.30
2022-08-22T02:00:08.242Z,74.58
2022-08-22T02:01:29.178Z,74.67
2022-08-22T02:02:57.984Z,74.96
2022-08-22T02:04:06.451Z,75.02
2022-08-22T02:05:27.117Z,75.18
2022-08-22T02:06:50.911Z,75.05
2022-08-22T02:08:24.440Z,74.92
2022-08-22T02:09:40.084Z,74.71
2022-08-22T02:10:49.116Z,74.61
2022-08-22T02:11:57.998Z,74.57
2022-08-22T02:13:03.969Z,74.46
2022-08-22T02:14:34.050Z,74.38
2022-08-22T02:15:43.904Z,74.53
2022-08-22T02:16:55.568Z,74.75
2022-08-22T02:18:01.357Z,74.69
2022-08-22T02:19:13.246Z,74.88
2022-08-22T02:20:45.898Z,74.47
2022-08-22T02:21:54.848Z,74.08
2022-08-22T02:23:21.289Z,74.40
2022-08-22T02:24:36.229Z,74.44
2022-08-22T02:25:57.194Z,74.17
2022-08-22T02:27:06.136Z,74.72
2022-08-22T02:28:11.957Z,75.19
2022-08-22T02:29:17.700Z,75.58
2022-08-22T02:30:50.013Z,75.40
2022-08-22T02:31:55.700Z,75.16
2022-08-22T02:33:07.373Z,74.92
2022-08-22T02:34:29.334Z,74.88
2022-08-22T02:36:51.310Z,75.19
2022-08-22T02:38:15.497Z,75.14
2022-08-22T02:39:24.249Z,75.19
2022-08-22T02:40:39.133Z,75.38
2022-08-22T02:41:47.782Z,75.83
2022-08-22T02:42:54.032Z,76.07
2022-08-22T02:44:15.000Z,76.16
2022-08-22T02:45:23.464Z,75.87
2022-08-22T02:46:39.744Z,75.95
2022-08-22T02:49:15.324Z,75.79
2022-08-22T02:50:34.738Z,75.67
2022-08-22T02:51:53.286Z,75.42
2022-08-22T02:53:10.906Z,75.34
2022-08-22T02:54:23.958Z,75.20
2022-08-22T02:55:44.261Z,74.93
2022-08-22T02:57:02.233Z,75.30
2022-08-22T02:58:10.935Z,75.23
2022-08-22T02:59:28.252Z,75.27
2022-08-22T03:00:34.469Z,75.19
2022-08-22T03:01:41.158Z,75.04
2022-08-22T03:02:57.636Z,75.04
2022-08-22T03:04:33.815Z,75.11
2022-08-22T03:05:39.574Z,75.36
2022-08-22T03:06:44.927Z,74.59
2022-08-22T03:07:56.406Z,74.26
2022-08-22T03:09:10.065Z,74.01
2022-08-22T03:10:21.962Z,73.92
2022-08-22T03:11:27.742Z,74.00
2022-08-22T03:12:47.999Z,74.27
2022-08-22T03:14:00.099Z,74.23
2022-08-22T03:15:09.019Z,74.42
2022-08-22T03:16:34.524Z,74.63
2022-08-22T03:17:39.939Z,74.73
2022-08-22T03:18:48.945Z,74.62
2022-08-22T03:19:57.172Z,74.42
2022-08-22T03:21:18.597Z,74.57
2022-08-22T03:22:49.696Z,74.51
2022-08-22T03:24:07.550Z,74.59
2022-08-22T03:25:23.608Z,74.49
2022-08-22T03:26:47.593Z,74.47
2022-08-22T03:27:56.481Z,74.60
2022-08-22T03:29:11.388Z,74.88
2022-08-22T03:30:20.817Z,75.49
2022-08-22T03:31:25.436Z,75.77
2022-08-22T03:32:47.912Z,75.50
2022-08-22T03:34:16.485Z,75.25
2022-08-22T03:35:25.403Z,75.36
2022-08-22T03:36:29.288Z,75.17
2022-08-22T03:37:35.056Z,75.15
2022-08-22T03:39:01.069Z,74.86
2022-08-22T03:40:07.003Z,74.74
2022-08-22T03:41:29.668Z,74.51
2022-08-22T03:43:05.405Z,74.46
2022-08-22T03:44:40.217Z,74.42
2022-08-22T03:46:09.135Z,74.78
2022-08-22T03:47:28.914Z,74.69
2022-08-22T03:48:46.765Z,74.66
2022-08-22T03:50:01.455Z,74.42
2022-08-22T03:51:39.031Z,74.27
2022-08-22T03:53:16.241Z,74.07
2022-08-22T03:54:37.781Z,74.32
2022-08-22T03:55:46.921Z,74.24
2022-08-22T03:57:00.473Z,73.75
2022-08-22T03:58:32.542Z,73.69
2022-08-22T03:59:54.955Z,73.20
2022-08-22T04:01:02.075Z,72.74
2022-08-22T04:02:42.309Z,72.58
2022-08-22T04:03:43.111Z,72.69
2022-08-22T04:05:05.235Z,72.48
2022-08-22T04:06:42.449Z,72.63
2022-08-22T04:08:06.186Z,72.43
2022-08-22T04:09:13.960Z,72.54
2022-08-22T04:10:51.929Z,72.63
2022-08-22T04:12:14.293Z,72.56
2022-08-22T04:13:28.738Z,72.29
2022-08-22T04:14:54.213Z,72.57
2022-08-22T04:16:09.728Z,72.51
2022-08-22T04:17:18.221Z,72.36
2022-08-22T04:18:38.962Z,72.10
2022-08-22T04:20:12.216Z,72.13
2022-08-22T04:21:29.084Z,72.10
2022-08-22T04:22:50.098Z,71.82
2022-08-22T04:24:18.927Z,71.45
2022-08-22T04:25:42.147Z,71.57
2022-08-22T04:27:18.072Z,71.75
2022-08-22T04:28:34.540Z,71.87
2022-08-22T04:29:46.564Z,71.43
2022-08-22T04:30:55.169Z,71.25
2022-08-22T04:32:12.818Z,71.14
2022-08-22T04:33:43.716Z,70.83
2022-08-22T04:35:02.783Z,70.40
2022-08-22T04:36:08.725Z,70.30
2022-08-22T04:37:29.282Z,69.71
2022-08-22T04:38:41.377Z,69.45
2022-08-22T04:39:53.177Z,69.42
2022-08-22T04:41:04.721Z,69.38
2022-08-22T04:42:32.399Z,69.92
2022-08-22T04:43:37.245Z,69.54
2022-08-22T04:44:58.336Z,69.29
2022-08-22T04:46:36.638Z,69.70
2022-08-22T04:47:57.914Z,70.00
2022-08-22T04:49:16.031Z,70.39
2022-08-22T04:50:45.084Z,70.70
2022-08-22T04:52:12.279Z,70.77
2022-08-22T04:53:35.055Z,71.30
2022-08-22T04:55:14.330Z,70.90
2022-08-22T04:56:50.638Z,70.92
2022-08-22T04:58:13.843Z,71.23
2022-08-22T04:59:18.110Z,70.66
2022-08-22T05:00:21.111Z,70.47
2022-08-22T05:01:40.686Z,70.75
2022-08-22T05:02:49.779Z,70.69
2022-08-22T05:04:02.152Z,70.43
2022-08-22T05:05:13.619Z,70.24
2022-08-22T05:06:17.515Z,69.81
2022-08-22T05:07:23.167Z,69.60
2022-08-22T05:08:28.501Z,69.21
2022-08-22T05:09:34.054Z,69.60
2022-08-22T05:10:41.537Z,69.90
2022-08-22T05:11:46.934Z,69.60
2022-08-22T05:12:52.698Z,69.11
2022-08-22T05:13:58.304Z,69.03
2022-08-22T05:15:07.281Z,68.97
2022-08-22T05:16:15.657Z,69.05
2022-08-22T05:17:21.521Z,69.51
2022-08-22T05:18:29.618Z,69.21
2022-08-22T05:19:34.924Z,69.06
2022-08-22T05:20:41.640Z,69.33
2022-08-22T05:21:46.808Z,69.17
2022-08-22T05:22:56.250Z,69.31
2022-08-22T05:24:02.594Z,69.16
2022-08-22T05:25:11.348Z,69.11
2022-08-22T05:26:17.061Z,68.99
2022-08-22T05:27:32.786Z,69.00
2022-08-22T05:28:38.491Z,68.42
2022-08-22T05:29:44.305Z,68.02
2022-08-22T05:30:48.907Z,67.83
2022-08-22T05:32:07.782Z,68.15
2022-08-22T05:33:27.925Z,67.23
2022-08-22T05:34:33.756Z,68.20
2022-08-22T05:35:47.196Z,68.38
2022-08-22T05:36:56.339Z,68.41
2022-08-22T05:37:59.538Z,68.62
2022-08-22T05:39:11.401Z,68.38
2022-08-22T05:40:26.885Z,67.99
2022-08-22T05:41:33.823Z,67.72
2022-08-22T05:42:37.133Z,67.58
2022-08-22T05:43:42.646Z,67.58
2022-08-22T05:44:45.643Z,66.97
2022-08-22T05:45:49.070Z,66.72
2022-08-22T05:46:55.386Z,66.89
2022-08-22T05:48:04.397Z,66.73
2022-08-22T05:49:09.950Z,66.90
2022-08-22T05:50:18.855Z,66.57
2022-08-22T05:51:27.298Z,66.58
2022-08-22T05:52:39.346Z,66.18
2022-08-22T05:53:45.022Z,66.17
2022-08-22T05:54:53.608Z,66.00
2022-08-22T05:56:22.776Z,65.59
2022-08-22T05:57:30.482Z,65.08
2022-08-22T05:58:42.133Z,64.82
2022-08-22T05:59:47.821Z,64.62
2022-08-22T06:00:54.152Z,64.73
2022-08-22T06:02:24.459Z,64.09
2022-08-22T06:03:33.045Z,63.45
2022-08-22T06:04:50.784Z,63.14
2022-08-22T06:05:56.568Z,62.98
2022-08-22T06:07:11.418Z,63.13
2022-08-22T06:08:21.419Z,62.78
2022-08-22T06:09:36.093Z,62.98
2022-08-22T06:10:48.439Z,62.99
2022-08-22T06:12:00.975Z,63.14
2022-08-22T06:13:13.803Z,62.55
2022-08-22T06:14:39.858Z,62.83
2022-08-22T06:15:53.080Z,62.12
2022-08-22T06:16:59.353Z,61.57
2022-08-22T06:18:05.222Z,61.70
2022-08-22T06:19:19.015Z,61.99
2022-08-22T06:20:17.706Z,61.74
2022-08-22T06:21:34.965Z,61.58
2022-08-22T06:22:37.595Z,61.50
2022-08-22T06:23:49.508Z,61.56
2022-08-22T06:24:54.305Z,61.62
2022-08-22T06:26:00.614Z,62.14
2022-08-22T06:27:09.679Z,61.85
2022-08-22T06:28:16.089Z,62.25
2022-08-22T06:29:22.297Z,62.52
2022-08-22T06:30:27.866Z,63.40
2022-08-22T06:33:12.364Z,63.55
2022-08-22T06:34:28.879Z,63.63
2022-08-22T06:35:34.924Z,63.76
2022-08-22T06:36:40.577Z,63.34
2022-08-22T06:37:47.326Z,62.98
2022-08-22T06:39:13.452Z,63.19
2022-08-22T06:40:17.905Z,62.55
2022-08-22T06:41:22.965Z,62.10
2022-08-22T06:42:28.824Z,62.17
2022-08-22T06:43:37.471Z,60.83
2022-08-22T06:45:01.329Z,61.02
2022-08-22T06:46:06.105Z,60.99
2022-08-22T06:47:11.843Z,60.36
2022-08-22T06:48:20.389Z,59.71
2022-08-22T06:49:25.386Z,59.99
2022-08-22T06:50:34.828Z,59.15
2022-08-22T06:51:39.537Z,59.94
2022-08-22T06:53:03.059Z,60.29
2022-08-22T06:54:09.103Z,60.29
2022-08-22T06:55:12.109Z,58.83
2022-08-22T06:57:46.050Z,58.81
2022-08-22T06:58:52.482Z,58.60
2022-08-22T06:59:57.406Z,58.22
2022-08-22T07:01:04.050Z,57.72
2022-08-22T07:02:28.396Z,57.97
2022-08-22T07:03:34.191Z,57.40
2022-08-22T07:04:37.483Z,57.62
2022-08-22T07:05:41.886Z,57.02
2022-08-22T07:06:47.804Z,58.00
2022-08-22T07:07:51.322Z,58.61
2022-08-22T07:08:55.220Z,58.07
2022-08-22T07:09:57.579Z,58.25
2022-08-22T07:11:15.668Z,58.38
2022-08-22T07:12:21.084Z,58.01
2022-08-22T07:13:25.705Z,58.22
2022-08-22T07:14:43.488Z,57.67
2022-08-22T07:15:52.192Z,57.26
2022-08-22T07:16:58.139Z,57.35
2022-08-22T07:18:03.917Z,56.98
2022-08-22T07:19:06.855Z,56.35
2022-08-22T07:20:12.803Z,56.24
2022-08-22T07:21:24.509Z,55.64
2022-08-22T07:22:30.177Z,55.84
2022-08-22T07:23:37.022Z,55.52
2022-08-22T07:24:43.179Z,55.13
2022-08-22T07:26:01.794Z,54.68
2022-08-22T07:27:19.585Z,54.81
2022-08-22T07:28:50.804Z,55.63
2022-08-22T07:29:58.189Z,54.80
2022-08-22T07:31:04.381Z,53.24
2022-08-22T07:32:20.529Z,53.14
2022-08-22T07:33:27.262Z,53.51
2022-08-22T07:34:54.152Z,53.55
2022-08-22T07:36:02.574Z,53.53
2022-08-22T07:37:17.147Z,52.65
2022-08-22T07:38:41.108Z,52.70
2022-08-22T07:40:02.258Z,53.63
2022-08-22T07:41:11.317Z,53.96
2022-08-22T07:42:16.904Z,53.04
2022-08-22T07:43:22.588Z,53.28
2022-08-22T07:44:28.350Z,52.95
2022-08-22T07:45:41.236Z,53.76
2022-08-22T07:46:53.159Z,54.39
2022-08-22T07:48:25.060Z,53.53
2022-08-22T07:49:25.928Z,53.98
2022-08-22T07:50:31.950Z,53.96
2022-08-22T07:51:37.737Z,54.32
2022-08-22T07:52:45.385Z,54.81
2022-08-22T07:54:01.362Z,54.79
2022-08-22T07:55:11.148Z,54.70
2022-08-22T07:56:27.695Z,55.01
2022-08-22T07:57:33.427Z,54.54
2022-08-22T07:58:38.796Z,54.63
2022-08-22T07:59:51.489Z,54.46
2022-08-22T08:00:54.853Z,54.23
2022-08-22T08:02:00.596Z,54.03
2022-08-22T08:03:06.472Z,54.01
2022-08-22T08:04:13.527Z,55.00
2022-08-22T08:05:17.192Z,54.53
2022-08-22T08:06:22.780Z,54.16
2022-08-22T08:07:27.720Z,53.60
2022-08-22T08:08:33.499Z,53.84
2022-08-22T08:09:42.329Z,53.57
2022-08-22T08:10:46.937Z,55.19
2022-08-22T08:11:53.298Z,53.84
2022-08-22T08:13:02.993Z,54.43
2022-08-22T08:14:09.205Z,53.63
2022-08-22T08:15:18.597Z,52.67
2022-08-22T08:16:26.719Z,51.55
2022-08-22T08:17:34.093Z,51.80
2022-08-22T08:18:39.103Z,50.94
2022-08-22T08:19:44.166Z,51.66
2022-08-22T08:20:56.494Z,51.14
2022-08-22T08:21:59.128Z,51.21
2022-08-22T08:23:04.432Z,51.63
2022-08-22T08:24:10.572Z,51.81
2022-08-22T08:25:16.983Z,52.25
2022-08-22T08:26:36.244Z,50.97
2022-08-22T08:27:39.370Z,50.84
2022-08-22T08:28:48.015Z,50.95
2022-08-22T08:29:53.827Z,50.17
2022-08-22T08:30:59.769Z,49.50
2022-08-22T08:32:05.374Z,49.65
2022-08-22T08:33:24.228Z,48.33
2022-08-22T08:34:23.662Z,48.26
2022-08-22T08:35:29.121Z,47.64
2022-08-22T08:36:40.908Z,48.31
2022-08-22T08:37:46.820Z,48.75
2022-08-22T08:39:07.827Z,50.05
2022-08-22T08:40:29.009Z,49.00
2022-08-22T08:41:41.030Z,50.12
2022-08-22T08:42:53.091Z,50.29
2022-08-22T08:44:15.918Z,49.53
2022-08-22T08:45:24.473Z,48.90
2022-08-22T08:46:55.853Z,48.31
2022-08-22T08:48:15.458Z,48.17
2022-08-22T08:49:30.842Z,47.53
2022-08-22T08:50:49.949Z,48.35
2022-08-22T08:52:28.997Z,48.59
2022-08-22T08:53:48.699Z,47.67
2022-08-22T08:55:19.714Z,48.13
2022-08-22T08:56:40.263Z,48.09
2022-08-22T08:57:51.375Z,47.21
2022-08-22T08:59:10.010Z,46.84
2022-08-22T09:00:15.455Z,46.93
2022-08-22T09:01:38.221Z,46.42
2022-08-22T09:03:06.454Z,47.91
2022-08-22T09:04:15.417Z,46.78
2022-08-22T09:05:37.629Z,47.07
2022-08-22T09:07:12.426Z,47.88
2022-08-22T09:08:44.240Z,47.87
2022-08-22T09:10:09.840Z,48.63
2022-08-22T09:11:28.617Z,48.12
2022-08-22T09:12:56.226Z,48.23
2022-08-22T09:14:23.441Z,48.56
2022-08-22T09:15:37.539Z,48.72
2022-08-22T09:17:18.901Z,48.28
2022-08-22T09:18:44.843Z,46.55
2022-08-22T09:20:15.461Z,47.00
2022-08-22T09:22:57.921Z,46.60
2022-08-22T09:33:15.433Z,46.49
2022-08-22T09:34:30.310Z,47.02
2022-08-22T09:35:55.806Z,46.85
2022-08-22T09:37:17.831Z,46.17
2022-08-22T09:38:32.669Z,46.64
2022-08-22T09:39:50.368Z,46.05
2022-08-22T09:40:15.554Z,47.31
2022-08-22T09:41:25.573Z,46.55
2022-08-22T09:42:44.932Z,45.68
2022-08-22T09:43:58.802Z,45.58
2022-08-22T09:45:32.065Z,46.23
2022-08-22T09:46:56.237Z,46.04
2022-08-22T09:48:11.229Z,46.37
2022-08-22T09:49:17.551Z,46.53
2022-08-22T09:50:37.188Z,45.35
2022-08-22T09:51:53.540Z,44.92
2022-08-22T09:53:23.841Z,45.38
2022-08-22T09:54:38.826Z,45.59
2022-08-22T09:55:57.941Z,45.84
2022-08-22T09:57:19.040Z,45.18
2022-08-22T09:58:41.655Z,45.33
2022-08-22T09:59:49.441Z,46.07
2022-08-22T10:01:19.162Z,46.13
2022-08-22T10:02:52.026Z,46.08
2022-08-22T10:04:19.638Z,46.30
2022-08-22T10:05:43.906Z,45.46
2022-08-22T10:06:45.890Z,45.47
2022-08-22T10:08:06.748Z,45.19
2022-08-22T10:09:31.407Z,45.30
2022-08-22T10:10:50.940Z,44.31
2022-08-22T10:12:06.098Z,45.34
2022-08-22T10:13:25.806Z,46.17
2022-08-22T10:14:31.494Z,45.07
2022-08-22T10:15:43.347Z,45.81
2022-08-22T10:16:52.225Z,45.90
2022-08-22T10:18:19.026Z,45.71
2022-08-22T10:21:20.929Z,45.78
2022-08-22T10:22:49.831Z,45.23
2022-08-22T10:23:55.714Z,45.41
2022-08-22T10:25:36.689Z,44.33
2022-08-22T10:26:47.277Z,44.03
2022-08-22T10:28:03.539Z,43.66
2022-08-22T10:29:29.774Z,44.03
2022-08-22T10:30:41.998Z,44.76
2022-08-22T10:31:59.283Z,44.10
2022-08-22T10:33:14.118Z,44.11
2022-08-22T10:34:25.693Z,43.95
2022-08-22T10:35:35.827Z,44.20
2022-08-22T10:36:58.784Z,43.74
2022-08-22T10:38:16.409Z,43.52
2022-08-22T10:39:25.729Z,44.33
2022-08-22T10:40:34.345Z,44.27
2022-08-22T10:41:56.981Z,43.55
2022-08-22T10:43:09.476Z,42.55
2022-08-22T10:44:18.474Z,42.91
2022-08-22T10:45:36.726Z,42.36
2022-08-22T10:46:53.730Z,42.35
2022-08-22T10:48:01.315Z,42.18
2022-08-22T10:49:08.216Z,42.76
2022-08-22T10:50:22.134Z,42.67
2022-08-22T10:51:34.736Z,42.68
2022-08-22T10:52:48.471Z,43.08
2022-08-22T10:54:03.833Z,43.00
2022-08-22T10:55:18.558Z,41.86
2022-08-22T10:56:38.235Z,42.19
2022-08-22T10:57:58.345Z,40.71
2022-08-22T10:59:30.059Z,40.60
2022-08-22T11:00:46.111Z,40.33
2022-08-22T11:01:53.448Z,39.63
2022-08-22T11:03:10.966Z,39.72
2022-08-22T11:04:28.357Z,39.42
2022-08-22T11:05:35.702Z,39.67
2022-08-22T11:06:47.497Z,40.12
2022-08-22T11:08:02.889Z,38.96
2022-08-22T11:09:28.255Z,38.24
2022-08-22T11:11:08.146Z,38.51
2022-08-22T11:12:35.085Z,38.13
2022-08-22T11:13:56.095Z,37.50
2022-08-22T11:15:08.337Z,38.27
2022-08-22T11:16:20.862Z,36.80
2022-08-22T11:18:00.538Z,37.88
2022-08-22T11:19:15.081Z,37.83
2022-08-22T11:20:27.388Z,37.08
2022-08-22T11:21:45.346Z,37.53
2022-08-22T11:23:03.703Z,36.97
2022-08-22T11:24:17.390Z,36.73
2022-08-22T11:25:35.951Z,37.53
2022-08-22T11:26:57.339Z,38.00
2022-08-22T11:28:26.168Z,36.88
2022-08-22T11:29:41.214Z,36.72
2022-08-22T11:31:00.381Z,37.05
2022-08-22T11:32:20.976Z,36.54
2022-08-22T11:33:46.216Z,36.27
2022-08-22T11:34:58.530Z,36.31
2022-08-22T11:36:10.065Z,36.27
2022-08-22T11:37:47.740Z,36.67
2022-08-22T11:39:13.730Z,36.12
2022-08-22T11:40:18.507Z,36.93
2022-08-22T11:41:27.077Z,35.75
2022-08-22T11:42:47.793Z,35.74
2022-08-22T11:43:52.330Z,35.71
2022-08-22T11:45:00.986Z,36.50
2022-08-22T11:46:20.791Z,36.25
2022-08-22T11:47:29.402Z,35.98
2022-08-22T11:48:38.277Z,35.23
2022-08-22T11:49:48.122Z,35.97
2022-08-22T11:50:57.208Z,36.09
2022-08-22T11:52:12.293Z,36.27
2022-08-22T11:53:36.915Z,35.85
2022-08-22T11:54:59.693Z,36.32
2022-08-22T11:56:27.178Z,34.81
2022-08-22T11:57:35.648Z,34.74
2022-08-22T11:58:44.496Z,34.24
2022-08-22T12:00:08.636Z,34.22
2022-08-22T12:01:17.419Z,35.14
2022-08-22T12:02:47.594Z,34.04
2022-08-22T12:04:10.150Z,36.84
2022-08-22T12:05:24.478Z,35.11
2022-08-22T12:06:48.544Z,34.56
2022-08-22T12:08:04.327Z,34.58
2022-08-22T12:09:42.574Z,34.76
2022-08-22T12:10:54.311Z,34.58
2022-08-22T12:12:00.427Z,34.83
2022-08-22T12:13:38.449Z,35.51
2022-08-22T12:15:00.686Z,34.77
2022-08-22T12:16:09.722Z,33.96
2022-08-22T12:17:28.547Z,35.80
2022-08-22T12:18:26.197Z,33.81
2022-08-22T12:20:12.855Z,33.11
2022-08-22T12:20:56.374Z,34.00
2022-08-22T12:22:05.970Z,32.75
2022-08-22T12:23:43.170Z,32.94
2022-08-22T12:24:45.802Z,31.37
2022-08-22T12:26:03.662Z,32.89
2022-08-22T12:27:35.797Z,33.02
2022-08-22T12:28:41.594Z,32.92
2022-08-22T12:29:57.242Z,32.33
2022-08-22T12:31:13.326Z,31.02
2022-08-22T12:32:43.828Z,30.53
2022-08-22T12:34:06.573Z,31.61
2022-08-22T12:35:38.686Z,31.68
2022-08-22T12:36:45.678Z,31.71
2022-08-22T12:37:56.469Z,33.02
2022-08-22T12:39:25.222Z,33.05
2022-08-22T12:40:34.738Z,32.61
2022-08-22T12:41:59.769Z,32.66
2022-08-22T12:43:23.784Z,33.03
2022-08-22T12:44:46.230Z,33.52
2022-08-22T12:46:13.182Z,32.54
2022-08-22T12:47:42.318Z,32.44
2022-08-22T12:48:47.696Z,33.76
2022-08-22T12:49:56.460Z,32.45
2022-08-22T12:51:38.073Z,32.91
2022-08-22T12:52:48.451Z,33.04
2022-08-22T12:54:18.011Z,32.47
2022-08-22T12:55:39.144Z,32.29
2022-08-22T12:57:10.602Z,32.96
2022-08-22T12:58:43.070Z,32.69
2022-08-22T12:59:49.854Z,34.07
2022-08-22T13:00:55.809Z,32.63
2022-08-22T13:02:02.775Z,32.42
2022-08-22T13:03:14.788Z,31.92
2022-08-22T13:04:32.497Z,33.21
2022-08-22T13:05:28.985Z,32.55
2022-08-22T13:06:41.611Z,32.15
2022-08-22T13:07:49.064Z,33.09
2022-08-22T13:08:53.883Z,31.23
2022-08-22T13:10:08.835Z,32.01
2022-08-22T13:11:22.716Z,31.06
2022-08-22T13:12:22.368Z,32.41
2022-08-22T13:13:31.709Z,31.04
2022-08-22T13:14:35.592Z,31.66
2022-08-22T13:15:46.249Z,31.61
2022-08-22T13:16:53.889Z,31.29
2022-08-22T13:18:13.251Z,30.10
2022-08-22T13:19:13.534Z,30.18
2022-08-22T13:20:33.060Z,30.28
2022-08-22T13:21:42.519Z,30.40
2022-08-22T13:22:45.908Z,32.10
2022-08-22T13:23:51.733Z,31.06
2022-08-22T13:25:09.552Z,30.59
2022-08-22T13:26:32.100Z,29.94
2022-08-22T13:29:09.049Z,30.60
2022-08-22T13:29:59.978Z,29.22
2022-08-22T13:31:04.371Z,30.36
2022-08-22T13:32:11.031Z,29.87
2022-08-22T13:33:17.804Z,30.83
2022-08-22T13:34:23.794Z,30.58
2022-08-22T13:35:35.538Z,30.79
2022-08-22T13:36:46.209Z,31.17
2022-08-22T13:37:53.773Z,31.53
2022-08-22T13:38:59.596Z,31.55
2022-08-22T13:40:11.261Z,31.21
2022-08-22T13:41:31.925Z,31.02
2022-08-22T13:42:40.154Z,30.38
2022-08-22T13:44:05.917Z,30.25
2022-08-22T13:45:12.716Z,31.02
2022-08-22T13:46:19.216Z,29.20
2022-08-22T13:47:24.701Z,31.11
2022-08-22T13:48:31.421Z,30.63
2022-08-22T13:49:40.898Z,30.97
2022-08-22T13:51:08.068Z,29.94
2022-08-22T13:52:29.111Z,29.47
2022-08-22T13:53:49.903Z,29.31
2022-08-22T13:55:00.995Z,28.20
2022-08-22T13:56:15.548Z,29.91
2022-08-22T13:57:29.252Z,29.67
2022-08-22T13:58:42.807Z,29.40
2022-08-22T14:00:06.203Z,29.35
2022-08-22T14:01:39.788Z,28.83
2022-08-22T14:03:05.719Z,30.06
2022-08-22T14:04:26.666Z,29.42
2022-08-22T14:05:23.990Z,29.96
2022-08-22T14:06:50.487Z,29.61
2022-08-22T14:08:14.290Z,29.67
2022-08-22T14:09:29.299Z,29.63
2022-08-22T14:10:30.430Z,29.23
2022-08-22T14:11:48.818Z,29.68
2022-08-22T14:13:00.721Z,29.25
2022-08-22T14:14:06.413Z,28.83
2022-08-22T14:15:11.809Z,28.85
2022-08-22T14:17:43.579Z,28.27
2022-08-22T14:18:50.971Z,28.60
2022-08-22T14:20:31.963Z,29.07
2022-08-22T14:21:48.889Z,28.80
2022-08-22T14:22:58.933Z,29.71
2022-08-22T14:24:02.871Z,27.92
2022-08-22T14:25:08.885Z,29.22
2022-08-22T14:26:32.799Z,28.42
2022-08-22T14:27:41.092Z,28.14
2022-08-22T14:28:45.250Z,28.57
2022-08-22T14:29:53.767Z,28.22
2022-08-22T14:31:02.613Z,28.47
2022-08-22T14:32:14.308Z,28.53
2022-08-22T14:33:21.402Z,27.75
2022-08-22T14:34:27.147Z,27.20
2022-08-22T14:35:35.204Z,28.00
2022-08-22T14:36:46.592Z,28.34
2022-08-22T14:37:52.862Z,28.83
2022-08-22T14:39:02.073Z,28.81
2022-08-22T14:40:14.538Z,28.09
2022-08-22T14:41:26.363Z,28.07
2022-08-22T14:42:50.440Z,28.69
2022-08-22T14:43:59.854Z,28.48
2022-08-22T14:45:09.232Z,28.80
2022-08-22T14:46:16.052Z,28.96
2022-08-22T14:47:54.498Z,29.05
2022-08-22T14:48:41.476Z,28.25
2022-08-22T14:49:56.812Z,28.99
2022-08-22T14:51:03.892Z,28.09
2022-08-22T14:52:19.690Z,28.87
2022-08-22T14:53:25.306Z,29.38
2022-08-22T14:54:30.309Z,29.75
2022-08-22T14:55:32.992Z,28.65
2022-08-22T14:56:37.322Z,29.43
2022-08-22T14:57:52.982Z,29.97
2022-08-22T14:59:14.834Z,29.87
2022-08-22T15:00:36.523Z,30.28
2022-08-22T15:01:58.685Z,29.43
2022-08-22T15:03:15.018Z,29.38
2022-08-22T15:04:21.294Z,29.39
2022-08-22T15:05:25.206Z,29.50
2022-08-22T15:06:38.512Z,28.72
2022-08-22T15:07:45.111Z,29.66
2022-08-22T15:08:49.982Z,28.82
2022-08-22T15:09:55.723Z,28.94
2022-08-22T15:11:18.774Z,29.24
2022-08-22T15:12:33.942Z,28.50
2022-08-22T15:13:39.467Z,28.90
2022-08-22T15:14:52.207Z,28.60
2022-08-22T15:15:54.287Z,28.40
2022-08-22T15:17:00.012Z,28.61
2022-08-22T15:18:20.933Z,28.84
2022-08-22T15:19:27.475Z,29.71
2022-08-22T15:20:49.227Z,29.14
2022-08-22T15:21:42.092Z,29.20
2022-08-22T15:22:46.990Z,29.46
2022-08-22T15:23:51.721Z,28.84
2022-08-22T15:25:09.681Z,28.66
2022-08-22T15:26:27.275Z,29.68
2022-08-22T15:27:34.344Z,29.19
2022-08-22T15:28:52.523Z,29.30
2022-08-22T15:29:48.827Z,29.43
2022-08-22T15:30:57.710Z,30.29
2022-08-22T15:32:01.999Z,30.54
2022-08-22T15:33:23.347Z,29.62
2022-08-22T15:34:32.188Z,30.16
2022-08-22T15:35:38.919Z,29.96
2022-08-22T15:38:28.429Z,29.20
2022-08-22T15:39:40.320Z,30.14
2022-08-22T15:40:45.643Z,30.23
2022-08-22T15:41:48.808Z,30.11
2022-08-22T15:42:53.997Z,30.05
2022-08-22T15:44:06.257Z,29.27
2022-08-22T15:45:20.847Z,30.05
2022-08-22T15:47:54.780Z,30.69
2022-08-22T15:49:00.331Z,30.52
2022-08-22T15:50:14.718Z,30.73
2022-08-22T15:51:19.261Z,30.49
2022-08-22T15:52:33.078Z,31.81
2022-08-22T15:53:48.163Z,32.12
2022-08-22T15:55:01.629Z,31.43
2022-08-22T15:56:12.831Z,32.48
2022-08-22T15:57:18.875Z,32.26
2022-08-22T15:58:23.285Z,32.03
2022-08-22T15:59:53.449Z,32.62
2022-08-22T16:01:19.665Z,32.82
2022-08-22T16:02:29.613Z,32.56
2022-08-22T16:03:36.099Z,32.12
2022-08-22T16:04:41.888Z,33.17
2022-08-22T16:05:50.768Z,32.85
2022-08-22T16:06:57.800Z,33.58
2022-08-22T16:08:04.310Z,32.94
2022-08-22T16:09:08.517Z,33.03
2022-08-22T16:10:23.135Z,33.29
2022-08-22T16:11:33.487Z,33.28
2022-08-22T16:12:38.751Z,34.24
2022-08-22T16:13:43.690Z,33.55
2022-08-22T16:14:48.701Z,34.03
2022-08-22T16:16:03.238Z,35.43
2022-08-22T16:17:09.010Z,35.17
2022-08-22T16:18:31.619Z,34.90
2022-08-22T16:19:36.469Z,34.52
2022-08-22T16:20:42.365Z,35.93
2022-08-22T16:21:48.166Z,35.31